Searcy, Arkansas
Current Conditions -  °F | °C
As of 3:56 AM on Wednesday 22 Oct 2014 (Local Time) from KSRC Reporting Station
Clear Clear  
Wind Chill: 54°   Ceiling: Unl
Heat Index: 54°   Visibility: 10mi
Dew Point: 47°   Wind: 6mph
Humidity: 77%   Direction: 360°N
Pressure: 30.17"   Gusts: NA
Location:  35.25°N, 91.74°W
Report Text: KSRC 220856Z AUTO 36005KT 10SM CLR 12/08 A3017 RMK AO2 SLP219 T01220083 52012 TSNO
Loading
Personal Weather Stations






























Interactive Weather Map New forecast layout! Learn more

10-Day Weather Forecast

Advertisements
Track Severe Weather on mobile